sensor_id;sensor_type;location;lat;lon;timestamp;P1;durP1;ratioP1;P2;durP2;ratioP2
76540;SDS011;65385;55.772;37.658;2024-03-23T00:53:51;30.80;;;15.50;;
76540;SDS011;65385;55.772;37.658;2024-03-23T00:54:52;33.53;;;15.65;;
76540;SDS011;65385;55.772;37.658;2024-03-23T00:55:52;34.63;;;16.52;;
76540;SDS011;65385;55.772;37.658;2024-03-23T00:56:53;31.58;;;15.88;;
76540;SDS011;65385;55.772;37.658;2024-03-23T00:57:54;35.28;;;16.73;;
76540;SDS011;65385;55.772;37.658;2024-03-23T00:58:54;38.53;;;17.27;;
76540;SDS011;65385;55.772;37.658;2024-03-23T00:59:55;35.22;;;18.20;;
76540;SDS011;65385;55.772;37.658;2024-03-23T01:00:55;36.78;;;18.48;;
76540;SDS011;65385;55.772;37.658;2024-03-23T01:01:56;34.42;;;17.25;;
76540;SDS011;65385;55.772;37.658;2024-03-23T01:02:57;31.33;;;16.35;;
76540;SDS011;65385;55.772;37.658;2024-03-23T01:03:57;38.50;;;18.83;;
76540;SDS011;65385;55.772;37.658;2024-03-23T01:04:58;32.63;;;16.00;;
76540;SDS011;65385;55.772;37.658;2024-03-23T01:05:59;35.33;;;16.83;;
76540;SDS011;65385;55.772;37.658;2024-03-23T01:07:00;34.83;;;15.70;;
76540;SDS011;65385;55.772;37.658;2024-03-23T01:08:01;36.58;;;16.85;;
76540;SDS011;65385;55.772;37.658;2024-03-23T01:09:02;34.60;;;16.88;;
76540;SDS011;65385;55.772;37.658;2024-03-23T01:10:03;36.45;;;17.65;;
76540;SDS011;65385;55.772;37.658;2024-03-23T01:11:04;34.28;;;16.02;;
76540;SDS011;65385;55.772;37.658;2024-03-23T01:12:05;35.83;;;16.70;;
76540;SDS011;65385;55.772;37.658;2024-03-23T01:13:06;33.38;;;15.93;;
76540;SDS011;65385;55.772;37.658;2024-03-23T01:14:06;35.60;;;17.02;;
76540;SDS011;65385;55.772;37.658;2024-03-23T01:15:07;35.90;;;15.85;;
76540;SDS011;65385;55.772;37.658;2024-03-23T01:16:08;30.77;;;15.25;;
76540;SDS011;65385;55.772;37.658;2024-03-23T01:17:08;32.30;;;16.58;;
76540;SDS011;65385;55.772;37.658;2024-03-23T01:18:09;22.50;;;11.43;;
76540;SDS011;65385;55.772;37.658;2024-03-23T01:19:10;33.15;;;15.30;;
76540;SDS011;65385;55.772;37.658;2024-03-23T01:20:10;36.58;;;17.67;;
76540;SDS011;65385;55.772;37.658;2024-03-23T01:21:11;35.20;;;17.95;;
76540;SDS011;65385;55.772;37.658;2024-03-23T01:22:12;40.67;;;16.23;;
76540;SDS011;65385;55.772;37.658;2024-03-23T01:23:12;35.17;;;16.60;;
76540;SDS011;65385;55.772;37.658;2024-03-23T01:24:13;27.77;;;15.45;;
76540;SDS011;65385;55.772;37.658;2024-03-23T01:25:14;30.15;;;14.00;;
76540;SDS011;65385;55.772;37.658;2024-03-23T01:26:15;38.22;;;16.33;;
76540;SDS011;65385;55.772;37.658;2024-03-23T01:27:16;36.38;;;17.25;;
76540;SDS011;65385;55.772;37.658;2024-03-23T01:28:16;39.00;;;17.00;;
76540;SDS011;65385;55.772;37.658;2024-03-23T01:29:17;35.17;;;17.13;;
76540;SDS011;65385;55.772;37.658;2024-03-23T01:30:17;33.45;;;18.45;;
76540;SDS011;65385;55.772;37.658;2024-03-23T01:31:18;37.55;;;17.58;;
76540;SDS011;65385;55.772;37.658;2024-03-23T01:32:19;30.83;;;15.43;;
76540;SDS011;65385;55.772;37.658;2024-03-23T01:33:19;37.50;;;19.35;;
76540;SDS011;65385;55.772;37.658;2024-03-23T01:34:20;31.48;;;16.90;;
76540;SDS011;65385;55.772;37.658;2024-03-23T01:35:21;36.03;;;15.27;;
76540;SDS011;65385;55.772;37.658;2024-03-23T01:36:21;32.15;;;16.88;;
76540;SDS011;65385;55.772;37.658;2024-03-23T01:37:22;35.88;;;18.00;;
76540;SDS011;65385;55.772;37.658;2024-03-23T01:38:22;35.60;;;17.65;;
76540;SDS011;65385;55.772;37.658;2024-03-23T01:39:23;36.35;;;16.05;;
76540;SDS011;65385;55.772;37.658;2024-03-23T01:40:23;37.03;;;17.02;;
76540;SDS011;65385;55.772;37.658;2024-03-23T01:41:24;37.50;;;17.08;;
76540;SDS011;65385;55.772;37.658;2024-03-23T01:42:25;37.45;;;17.25;;
76540;SDS011;65385;55.772;37.658;2024-03-23T01:43:25;36.97;;;17.27;;
76540;SDS011;65385;55.772;37.658;2024-03-23T01:44:27;37.75;;;18.25;;
76540;SDS011;65385;55.772;37.658;2024-03-23T01:45:27;37.58;;;17.63;;
76540;SDS011;65385;55.772;37.658;2024-03-23T01:46:28;36.03;;;16.63;;
76540;SDS011;65385;55.772;37.658;2024-03-23T01:47:28;37.30;;;17.80;;
76540;SDS011;65385;55.772;37.658;2024-03-23T01:48:29;40.47;;;19.20;;
76540;SDS011;65385;55.772;37.658;2024-03-23T01:49:29;35.08;;;16.75;;
76540;SDS011;65385;55.772;37.658;2024-03-23T01:50:31;28.65;;;15.32;;
76540;SDS011;65385;55.772;37.658;2024-03-23T01:51:34;38.97;;;16.45;;
76540;SDS011;65385;55.772;37.658;2024-03-23T01:52:36;41.08;;;16.95;;
76540;SDS011;65385;55.772;37.658;2024-03-23T01:53:36;36.50;;;17.20;;
76540;SDS011;65385;55.772;37.658;2024-03-23T01:54:37;32.47;;;16.83;;
76540;SDS011;65385;55.772;37.658;2024-03-23T01:55:38;36.88;;;17.13;;
76540;SDS011;65385;55.772;37.658;2024-03-23T01:56:40;33.50;;;17.17;;
76540;SDS011;65385;55.772;37.658;2024-03-23T01:57:41;36.80;;;16.88;;
76540;SDS011;65385;55.772;37.658;2024-03-23T01:58:42;30.20;;;14.60;;
76540;SDS011;65385;55.772;37.658;2024-03-23T01:59:42;33.60;;;14.80;;
76540;SDS011;65385;55.772;37.658;2024-03-23T02:00:44;28.65;;;13.07;;
76540;SDS011;65385;55.772;37.658;2024-03-23T02:01:45;34.25;;;15.43;;
76540;SDS011;65385;55.772;37.658;2024-03-23T02:02:47;35.30;;;15.60;;
76540;SDS011;65385;55.772;37.658;2024-03-23T02:03:47;32.78;;;16.27;;
76540;SDS011;65385;55.772;37.658;2024-03-23T02:04:49;36.55;;;16.98;;
76540;SDS011;65385;55.772;37.658;2024-03-23T02:05:49;30.75;;;15.32;;
76540;SDS011;65385;55.772;37.658;2024-03-23T02:06:50;27.58;;;12.15;;
76540;SDS011;65385;55.772;37.658;2024-03-23T02:07:51;34.63;;;15.15;;
76540;SDS011;65385;55.772;37.658;2024-03-23T02:08:51;35.13;;;17.30;;
76540;SDS011;65385;55.772;37.658;2024-03-23T02:09:52;29.48;;;14.75;;
76540;SDS011;65385;55.772;37.658;2024-03-23T02:10:53;38.33;;;17.42;;
76540;SDS011;65385;55.772;37.658;2024-03-23T02:11:54;34.88;;;15.45;;
76540;SDS011;65385;55.772;37.658;2024-03-23T02:12:55;36.08;;;16.30;;
76540;SDS011;65385;55.772;37.658;2024-03-23T02:13:55;37.83;;;16.13;;
76540;SDS011;65385;55.772;37.658;2024-03-23T02:14:56;33.05;;;14.43;;
76540;SDS011;65385;55.772;37.658;2024-03-23T02:15:56;37.13;;;16.52;;
76540;SDS011;65385;55.772;37.658;2024-03-23T02:16:57;33.17;;;15.38;;
76540;SDS011;65385;55.772;37.658;2024-03-23T02:17:58;36.08;;;14.98;;
76540;SDS011;65385;55.772;37.658;2024-03-23T02:18:58;35.13;;;16.48;;
76540;SDS011;65385;55.772;37.658;2024-03-23T02:19:59;38.42;;;17.38;;
76540;SDS011;65385;55.772;37.658;2024-03-23T02:21:00;38.00;;;16.85;;
76540;SDS011;65385;55.772;37.658;2024-03-23T02:22:01;34.10;;;15.85;;
76540;SDS011;65385;55.772;37.658;2024-03-23T02:23:01;39.97;;;17.00;;
76540;SDS011;65385;55.772;37.658;2024-03-23T02:24:02;34.10;;;15.43;;
76540;SDS011;65385;55.772;37.658;2024-03-23T02:25:06;33.63;;;15.60;;
76540;SDS011;65385;55.772;37.658;2024-03-23T02:26:07;30.48;;;15.18;;
76540;SDS011;65385;55.772;37.658;2024-03-23T02:27:08;23.15;;;12.57;;
76540;SDS011;65385;55.772;37.658;2024-03-23T02:28:08;37.10;;;16.33;;
76540;SDS011;65385;55.772;37.658;2024-03-23T02:29:09;31.95;;;15.30;;
76540;SDS011;65385;55.772;37.658;2024-03-23T02:30:10;30.80;;;16.20;;
76540;SDS011;65385;55.772;37.658;2024-03-23T02:31:10;34.72;;;15.60;;
76540;SDS011;65385;55.772;37.658;2024-03-23T02:32:11;32.20;;;15.70;;
76540;SDS011;65385;55.772;37.658;2024-03-23T02:33:12;31.67;;;14.18;;
76540;SDS011;65385;55.772;37.658;2024-03-23T02:34:12;30.00;;;14.77;;
76540;SDS011;65385;55.772;37.658;2024-03-23T02:35:13;37.95;;;17.52;;
76540;SDS011;65385;55.772;37.658;2024-03-23T02:36:14;41.85;;;17.40;;
76540;SDS011;65385;55.772;37.658;2024-03-23T02:37:14;32.40;;;17.20;;
76540;SDS011;65385;55.772;37.658;2024-03-23T02:38:15;33.40;;;14.98;;
76540;SDS011;65385;55.772;37.658;2024-03-23T02:39:15;31.83;;;15.57;;
76540;SDS011;65385;55.772;37.658;2024-03-23T02:40:16;34.70;;;16.50;;
76540;SDS011;65385;55.772;37.658;2024-03-23T02:41:17;33.65;;;15.38;;
76540;SDS011;65385;55.772;37.658;2024-03-23T02:42:23;33.30;;;15.68;;
76540;SDS011;65385;55.772;37.658;2024-03-23T02:43:23;35.33;;;17.00;;
76540;SDS011;65385;55.772;37.658;2024-03-23T02:44:24;39.03;;;18.27;;
76540;SDS011;65385;55.772;37.658;2024-03-23T02:45:24;36.63;;;17.40;;
76540;SDS011;65385;55.772;37.658;2024-03-23T02:46:25;36.83;;;18.08;;
76540;SDS011;65385;55.772;37.658;2024-03-23T02:47:25;39.42;;;18.02;;
76540;SDS011;65385;55.772;37.658;2024-03-23T02:48:26;37.28;;;16.75;;
76540;SDS011;65385;55.772;37.658;2024-03-23T02:49:26;32.05;;;15.35;;
76540;SDS011;65385;55.772;37.658;2024-03-23T02:50:27;34.08;;;14.65;;
76540;SDS011;65385;55.772;37.658;2024-03-23T02:51:28;39.55;;;16.33;;
76540;SDS011;65385;55.772;37.658;2024-03-23T02:52:28;26.33;;;12.55;;
76540;SDS011;65385;55.772;37.658;2024-03-23T02:53:29;35.13;;;17.00;;
76540;SDS011;65385;55.772;37.658;2024-03-23T02:54:29;31.70;;;15.23;;
76540;SDS011;65385;55.772;37.658;2024-03-23T02:55:30;26.42;;;14.27;;
76540;SDS011;65385;55.772;37.658;2024-03-23T02:56:32;27.80;;;13.35;;
76540;SDS011;65385;55.772;37.658;2024-03-23T02:57:33;34.88;;;15.85;;
76540;SDS011;65385;55.772;37.658;2024-03-23T02:58:33;33.20;;;16.70;;
76540;SDS011;65385;55.772;37.658;2024-03-23T02:59:34;28.95;;;14.43;;
76540;SDS011;65385;55.772;37.658;2024-03-23T03:00:34;36.28;;;16.35;;
76540;SDS011;65385;55.772;37.658;2024-03-23T03:01:35;36.15;;;15.05;;
76540;SDS011;65385;55.772;37.658;2024-03-23T03:02:36;32.90;;;15.07;;
76540;SDS011;65385;55.772;37.658;2024-03-23T03:03:37;36.15;;;18.58;;
76540;SDS011;65385;55.772;37.658;2024-03-23T03:04:38;36.42;;;16.55;;
76540;SDS011;65385;55.772;37.658;2024-03-23T03:05:38;35.22;;;16.08;;
76540;SDS011;65385;55.772;37.658;2024-03-23T03:06:39;34.45;;;16.50;;
76540;SDS011;65385;55.772;37.658;2024-03-23T03:07:41;35.55;;;16.80;;
76540;SDS011;65385;55.772;37.658;2024-03-23T03:08:41;28.55;;;13.90;;
76540;SDS011;65385;55.772;37.658;2024-03-23T03:09:42;32.58;;;15.40;;
76540;SDS011;65385;55.772;37.658;2024-03-23T03:10:42;33.22;;;18.60;;
76540;SDS011;65385;55.772;37.658;2024-03-23T03:11:43;27.67;;;13.65;;
76540;SDS011;65385;55.772;37.658;2024-03-23T03:12:44;32.30;;;15.45;;
76540;SDS011;65385;55.772;37.658;2024-03-23T03:13:44;34.15;;;16.63;;
76540;SDS011;65385;55.772;37.658;2024-03-23T03:14:45;31.38;;;14.65;;
76540;SDS011;65385;55.772;37.658;2024-03-23T03:15:45;29.15;;;14.20;;
76540;SDS011;65385;55.772;37.658;2024-03-23T03:16:46;33.40;;;15.35;;
76540;SDS011;65385;55.772;37.658;2024-03-23T03:17:46;24.02;;;11.07;;
76540;SDS011;65385;55.772;37.658;2024-03-23T03:18:47;35.92;;;17.10;;
76540;SDS011;65385;55.772;37.658;2024-03-23T03:19:47;37.63;;;14.85;;
76540;SDS011;65385;55.772;37.658;2024-03-23T03:20:48;29.25;;;14.07;;
76540;SDS011;65385;55.772;37.658;2024-03-23T03:21:49;34.25;;;16.55;;
76540;SDS011;65385;55.772;37.658;2024-03-23T03:22:50;32.90;;;16.60;;
76540;SDS011;65385;55.772;37.658;2024-03-23T03:23:50;26.85;;;14.43;;
76540;SDS011;65385;55.772;37.658;2024-03-23T03:24:51;30.98;;;13.38;;
76540;SDS011;65385;55.772;37.658;2024-03-23T03:25:51;32.80;;;14.75;;
76540;SDS011;65385;55.772;37.658;2024-03-23T03:26:52;27.10;;;13.88;;
76540;SDS011;65385;55.772;37.658;2024-03-23T03:27:53;36.47;;;17.60;;
76540;SDS011;65385;55.772;37.658;2024-03-23T03:28:53;25.80;;;14.93;;
76540;SDS011;65385;55.772;37.658;2024-03-23T03:29:54;23.90;;;12.05;;
76540;SDS011;65385;55.772;37.658;2024-03-23T03:30:54;26.17;;;11.88;;
76540;SDS011;65385;55.772;37.658;2024-03-23T03:31:55;28.83;;;13.93;;
76540;SDS011;65385;55.772;37.658;2024-03-23T03:32:55;32.70;;;15.25;;
76540;SDS011;65385;55.772;37.658;2024-03-23T03:33:56;27.95;;;13.70;;
76540;SDS011;65385;55.772;37.658;2024-03-23T03:34:57;30.08;;;14.68;;
76540;SDS011;65385;55.772;37.658;2024-03-23T03:35:57;35.35;;;14.60;;
76540;SDS011;65385;55.772;37.658;2024-03-23T03:36:58;31.70;;;15.55;;
76540;SDS011;65385;55.772;37.658;2024-03-23T03:37:59;24.70;;;12.75;;
76540;SDS011;65385;55.772;37.658;2024-03-23T03:39:00;31.98;;;16.10;;
76540;SDS011;65385;55.772;37.658;2024-03-23T03:40:02;33.97;;;17.17;;
76540;SDS011;65385;55.772;37.658;2024-03-23T03:41:04;35.45;;;17.17;;
76540;SDS011;65385;55.772;37.658;2024-03-23T03:42:06;36.15;;;16.85;;
76540;SDS011;65385;55.772;37.658;2024-03-23T03:43:07;30.52;;;14.77;;
76540;SDS011;65385;55.772;37.658;2024-03-23T03:44:08;24.63;;;12.73;;
76540;SDS011;65385;55.772;37.658;2024-03-23T03:45:08;30.00;;;14.32;;
76540;SDS011;65385;55.772;37.658;2024-03-23T03:46:09;35.42;;;17.75;;
76540;SDS011;65385;55.772;37.658;2024-03-23T03:47:11;28.95;;;14.10;;
76540;SDS011;65385;55.772;37.658;2024-03-23T03:48:12;27.17;;;12.90;;
76540;SDS011;65385;55.772;37.658;2024-03-23T03:49:12;38.58;;;15.45;;
76540;SDS011;65385;55.772;37.658;2024-03-23T03:50:13;35.58;;;17.25;;
76540;SDS011;65385;55.772;37.658;2024-03-23T03:51:13;33.05;;;16.40;;
76540;SDS011;65385;55.772;37.658;2024-03-23T03:52:14;29.45;;;14.35;;
76540;SDS011;65385;55.772;37.658;2024-03-23T03:53:14;29.52;;;15.52;;
76540;SDS011;65385;55.772;37.658;2024-03-23T03:54:15;33.85;;;15.73;;
76540;SDS011;65385;55.772;37.658;2024-03-23T03:55:16;29.70;;;15.07;;
76540;SDS011;65385;55.772;37.658;2024-03-23T03:56:16;32.60;;;15.55;;
76540;SDS011;65385;55.772;37.658;2024-03-23T03:57:17;33.30;;;15.32;;
76540;SDS011;65385;55.772;37.658;2024-03-23T03:58:17;33.15;;;16.85;;
76540;SDS011;65385;55.772;37.658;2024-03-23T03:59:18;36.65;;;17.98;;
76540;SDS011;65385;55.772;37.658;2024-03-23T04:00:20;35.42;;;16.13;;
76540;SDS011;65385;55.772;37.658;2024-03-23T04:01:21;25.75;;;12.80;;
76540;SDS011;65385;55.772;37.658;2024-03-23T04:02:21;35.45;;;15.57;;
76540;SDS011;65385;55.772;37.658;2024-03-23T04:03:22;34.00;;;15.32;;
76540;SDS011;65385;55.772;37.658;2024-03-23T04:04:22;34.53;;;15.27;;
76540;SDS011;65385;55.772;37.658;2024-03-23T04:05:23;30.77;;;14.82;;
76540;SDS011;65385;55.772;37.658;2024-03-23T04:06:24;33.78;;;15.05;;
76540;SDS011;65385;55.772;37.658;2024-03-23T04:07:24;32.00;;;14.75;;
76540;SDS011;65385;55.772;37.658;2024-03-23T04:08:25;29.00;;;14.60;;
76540;SDS011;65385;55.772;37.658;2024-03-23T04:09:25;32.45;;;14.93;;
76540;SDS011;65385;55.772;37.658;2024-03-23T04:10:26;30.40;;;14.00;;
76540;SDS011;65385;55.772;37.658;2024-03-23T04:11:27;31.90;;;16.08;;
76540;SDS011;65385;55.772;37.658;2024-03-23T04:12:27;31.77;;;14.70;;
76540;SDS011;65385;55.772;37.658;2024-03-23T04:13:28;27.25;;;13.13;;
76540;SDS011;65385;55.772;37.658;2024-03-23T04:14:28;30.73;;;14.25;;
76540;SDS011;65385;55.772;37.658;2024-03-23T04:15:29;38.92;;;16.60;;
76540;SDS011;65385;55.772;37.658;2024-03-23T04:16:33;33.50;;;15.35;;
76540;SDS011;65385;55.772;37.658;2024-03-23T04:17:35;32.47;;;14.50;;
76540;SDS011;65385;55.772;37.658;2024-03-23T04:18:35;31.83;;;16.80;;
76540;SDS011;65385;55.772;37.658;2024-03-23T04:19:36;29.67;;;13.38;;
76540;SDS011;65385;55.772;37.658;2024-03-23T04:20:37;32.42;;;16.02;;
76540;SDS011;65385;55.772;37.658;2024-03-23T04:21:38;25.55;;;13.38;;
76540;SDS011;65385;55.772;37.658;2024-03-23T04:22:38;35.22;;;17.10;;
76540;SDS011;65385;55.772;37.658;2024-03-23T04:23:39;25.05;;;13.05;;
76540;SDS011;65385;55.772;37.658;2024-03-23T04:24:40;28.30;;;13.55;;
76540;SDS011;65385;55.772;37.658;2024-03-23T04:25:41;27.70;;;13.68;;
76540;SDS011;65385;55.772;37.658;2024-03-23T04:26:42;30.25;;;13.75;;
76540;SDS011;65385;55.772;37.658;2024-03-23T04:27:43;33.45;;;16.02;;
76540;SDS011;65385;55.772;37.658;2024-03-23T04:28:44;30.02;;;15.48;;
76540;SDS011;65385;55.772;37.658;2024-03-23T04:29:48;32.38;;;14.05;;
76540;SDS011;65385;55.772;37.658;2024-03-23T04:30:52;31.33;;;14.45;;
76540;SDS011;65385;55.772;37.658;2024-03-23T04:31:52;33.20;;;15.80;;
76540;SDS011;65385;55.772;37.658;2024-03-23T04:32:53;29.00;;;14.20;;
76540;SDS011;65385;55.772;37.658;2024-03-23T04:33:54;36.67;;;17.42;;
76540;SDS011;65385;55.772;37.658;2024-03-23T04:34:54;33.97;;;17.65;;
76540;SDS011;65385;55.772;37.658;2024-03-23T04:35:55;27.60;;;14.60;;
76540;SDS011;65385;55.772;37.658;2024-03-23T04:36:56;31.10;;;15.10;;
76540;SDS011;65385;55.772;37.658;2024-03-23T04:37:56;30.17;;;15.07;;
76540;SDS011;65385;55.772;37.658;2024-03-23T04:38:59;29.42;;;16.88;;
76540;SDS011;65385;55.772;37.658;2024-03-23T04:40:00;30.25;;;15.32;;
76540;SDS011;65385;55.772;37.658;2024-03-23T04:41:02;30.90;;;15.25;;
76540;SDS011;65385;55.772;37.658;2024-03-23T04:42:03;25.05;;;14.50;;
76540;SDS011;65385;55.772;37.658;2024-03-23T04:43:03;34.20;;;15.52;;
76540;SDS011;65385;55.772;37.658;2024-03-23T04:44:05;33.03;;;16.42;;
76540;SDS011;65385;55.772;37.658;2024-03-23T04:45:05;33.75;;;15.48;;
76540;SDS011;65385;55.772;37.658;2024-03-23T04:46:06;32.58;;;16.00;;
76540;SDS011;65385;55.772;37.658;2024-03-23T04:47:07;29.17;;;14.15;;
76540;SDS011;65385;55.772;37.658;2024-03-23T04:48:08;34.63;;;15.40;;
76540;SDS011;65385;55.772;37.658;2024-03-23T04:49:08;39.33;;;16.23;;
76540;SDS011;65385;55.772;37.658;2024-03-23T04:50:09;35.42;;;15.15;;
76540;SDS011;65385;55.772;37.658;2024-03-23T04:51:19;27.02;;;12.52;;
76540;SDS011;65385;55.772;37.658;2024-03-23T04:52:24;29.52;;;15.35;;
76540;SDS011;65385;55.772;37.658;2024-03-23T04:53:24;25.33;;;14.40;;
76540;SDS011;65385;55.772;37.658;2024-03-23T04:54:30;29.98;;;14.98;;
76540;SDS011;65385;55.772;37.658;2024-03-23T04:55:32;30.30;;;14.25;;
76540;SDS011;65385;55.772;37.658;2024-03-23T04:56:33;28.88;;;13.52;;
76540;SDS011;65385;55.772;37.658;2024-03-23T04:57:33;28.52;;;13.73;;
76540;SDS011;65385;55.772;37.658;2024-03-23T04:58:34;28.92;;;13.93;;
76540;SDS011;65385;55.772;37.658;2024-03-23T04:59:34;31.42;;;15.35;;
76540;SDS011;65385;55.772;37.658;2024-03-23T05:00:35;32.95;;;15.18;;
76540;SDS011;65385;55.772;37.658;2024-03-23T05:01:35;30.63;;;15.82;;
76540;SDS011;65385;55.772;37.658;2024-03-23T05:02:39;29.00;;;15.45;;
76540;SDS011;65385;55.772;37.658;2024-03-23T05:03:39;25.33;;;11.95;;
76540;SDS011;65385;55.772;37.658;2024-03-23T05:04:40;34.35;;;15.50;;
76540;SDS011;65385;55.772;37.658;2024-03-23T05:05:40;31.15;;;14.25;;
76540;SDS011;65385;55.772;37.658;2024-03-23T05:06:41;25.42;;;12.80;;
76540;SDS011;65385;55.772;37.658;2024-03-23T05:07:42;25.50;;;11.90;;
76540;SDS011;65385;55.772;37.658;2024-03-23T05:08:42;30.77;;;16.00;;
76540;SDS011;65385;55.772;37.658;2024-03-23T05:09:43;31.02;;;15.40;;
76540;SDS011;65385;55.772;37.658;2024-03-23T05:10:43;28.20;;;14.50;;
76540;SDS011;65385;55.772;37.658;2024-03-23T05:11:44;31.25;;;15.70;;
76540;SDS011;65385;55.772;37.658;2024-03-23T05:12:45;28.75;;;13.88;;
76540;SDS011;65385;55.772;37.658;2024-03-23T05:13:45;19.08;;;10.05;;
76540;SDS011;65385;55.772;37.658;2024-03-23T05:14:46;24.45;;;11.88;;
76540;SDS011;65385;55.772;37.658;2024-03-23T05:15:52;26.17;;;12.88;;
76540;SDS011;65385;55.772;37.658;2024-03-23T05:16:53;23.60;;;12.77;;
76540;SDS011;65385;55.772;37.658;2024-03-23T05:17:54;29.80;;;13.82;;
76540;SDS011;65385;55.772;37.658;2024-03-23T05:18:55;31.23;;;14.05;;
76540;SDS011;65385;55.772;37.658;2024-03-23T05:19:55;26.27;;;13.00;;
76540;SDS011;65385;55.772;37.658;2024-03-23T05:20:56;30.00;;;14.77;;
76540;SDS011;65385;55.772;37.658;2024-03-23T05:21:57;29.48;;;14.20;;
76540;SDS011;65385;55.772;37.658;2024-03-23T05:22:59;26.15;;;13.40;;
76540;SDS011;65385;55.772;37.658;2024-03-23T05:24:00;18.80;;;9.75;;
76540;SDS011;65385;55.772;37.658;2024-03-23T05:25:01;28.88;;;14.20;;
76540;SDS011;65385;55.772;37.658;2024-03-23T05:26:04;25.90;;;12.65;;
76540;SDS011;65385;55.772;37.658;2024-03-23T05:27:05;27.35;;;14.13;;
76540;SDS011;65385;55.772;37.658;2024-03-23T05:28:06;28.15;;;14.05;;
76540;SDS011;65385;55.772;37.658;2024-03-23T05:29:07;26.50;;;14.18;;
76540;SDS011;65385;55.772;37.658;2024-03-23T05:30:11;25.70;;;14.02;;
76540;SDS011;65385;55.772;37.658;2024-03-23T05:31:11;27.30;;;13.32;;
76540;SDS011;65385;55.772;37.658;2024-03-23T05:32:12;28.90;;;15.00;;
76540;SDS011;65385;55.772;37.658;2024-03-23T05:33:13;27.98;;;13.38;;
76540;SDS011;65385;55.772;37.658;2024-03-23T05:34:13;27.25;;;13.95;;
76540;SDS011;65385;55.772;37.658;2024-03-23T05:35:14;25.90;;;13.50;;
76540;SDS011;65385;55.772;37.658;2024-03-23T05:36:15;25.85;;;13.98;;
76540;SDS011;65385;55.772;37.658;2024-03-23T05:37:15;28.48;;;12.27;;
76540;SDS011;65385;55.772;37.658;2024-03-23T05:38:16;26.90;;;13.10;;
76540;SDS011;65385;55.772;37.658;2024-03-23T05:39:16;26.48;;;13.02;;
76540;SDS011;65385;55.772;37.658;2024-03-23T05:40:17;20.15;;;11.05;;
76540;SDS011;65385;55.772;37.658;2024-03-23T05:41:19;25.10;;;11.90;;
76540;SDS011;65385;55.772;37.658;2024-03-23T05:42:20;27.17;;;13.90;;
76540;SDS011;65385;55.772;37.658;2024-03-23T05:43:21;25.15;;;11.85;;
76540;SDS011;65385;55.772;37.658;2024-03-23T05:44:22;26.77;;;12.73;;
76540;SDS011;65385;55.772;37.658;2024-03-23T05:45:22;26.05;;;11.65;;
76540;SDS011;65385;55.772;37.658;2024-03-23T05:46:23;26.52;;;11.65;;
76540;SDS011;65385;55.772;37.658;2024-03-23T05:47:24;22.48;;;11.90;;
76540;SDS011;65385;55.772;37.658;2024-03-23T05:48:25;26.00;;;12.32;;
76540;SDS011;65385;55.772;37.658;2024-03-23T05:49:26;22.40;;;11.60;;
76540;SDS011;65385;55.772;37.658;2024-03-23T05:50:27;20.65;;;10.23;;
76540;SDS011;65385;55.772;37.658;2024-03-23T05:51:28;28.35;;;13.10;;
76540;SDS011;65385;55.772;37.658;2024-03-23T05:52:28;22.10;;;12.20;;
76540;SDS011;65385;55.772;37.658;2024-03-23T05:53:29;23.50;;;12.15;;
76540;SDS011;65385;55.772;37.658;2024-03-23T05:54:30;21.33;;;12.07;;
76540;SDS011;65385;55.772;37.658;2024-03-23T05:55:30;24.25;;;13.02;;
76540;SDS011;65385;55.772;37.658;2024-03-23T05:56:32;28.90;;;13.48;;
76540;SDS011;65385;55.772;37.658;2024-03-23T05:57:33;24.08;;;13.93;;
76540;SDS011;65385;55.772;37.658;2024-03-23T05:58:33;26.83;;;13.38;;
76540;SDS011;65385;55.772;37.658;2024-03-23T05:59:34;23.63;;;12.05;;
76540;SDS011;65385;55.772;37.658;2024-03-23T06:00:34;26.95;;;13.02;;
76540;SDS011;65385;55.772;37.658;2024-03-23T06:01:35;20.00;;;10.70;;
76540;SDS011;65385;55.772;37.658;2024-03-23T06:02:35;20.00;;;10.50;;
76540;SDS011;65385;55.772;37.658;2024-03-23T06:03:36;22.13;;;11.15;;
76540;SDS011;65385;55.772;37.658;2024-03-23T06:04:37;25.73;;;13.38;;
76540;SDS011;65385;55.772;37.658;2024-03-23T06:05:37;28.42;;;12.88;;
76540;SDS011;65385;55.772;37.658;2024-03-23T06:06:39;20.95;;;11.32;;
76540;SDS011;65385;55.772;37.658;2024-03-23T06:07:40;22.70;;;12.38;;
76540;SDS011;65385;55.772;37.658;2024-03-23T06:08:40;22.90;;;12.35;;
76540;SDS011;65385;55.772;37.658;2024-03-23T06:09:41;21.55;;;12.18;;
76540;SDS011;65385;55.772;37.658;2024-03-23T06:10:42;24.50;;;12.25;;
76540;SDS011;65385;55.772;37.658;2024-03-23T06:11:43;23.92;;;12.27;;
76540;SDS011;65385;55.772;37.658;2024-03-23T06:12:43;22.27;;;11.73;;
76540;SDS011;65385;55.772;37.658;2024-03-23T06:13:44;25.45;;;13.45;;
76540;SDS011;65385;55.772;37.658;2024-03-23T06:14:44;21.15;;;10.25;;
76540;SDS011;65385;55.772;37.658;2024-03-23T06:15:45;21.20;;;10.07;;
76540;SDS011;65385;55.772;37.658;2024-03-23T06:16:46;25.17;;;13.10;;
76540;SDS011;65385;55.772;37.658;2024-03-23T06:17:48;20.17;;;10.93;;
76540;SDS011;65385;55.772;37.658;2024-03-23T06:18:49;16.17;;;8.25;;
76540;SDS011;65385;55.772;37.658;2024-03-23T06:19:50;22.30;;;10.75;;
76540;SDS011;65385;55.772;37.658;2024-03-23T06:20:51;23.98;;;11.48;;
76540;SDS011;65385;55.772;37.658;2024-03-23T06:21:51;22.10;;;12.65;;
76540;SDS011;65385;55.772;37.658;2024-03-23T06:22:52;23.98;;;12.18;;
76540;SDS011;65385;55.772;37.658;2024-03-23T06:23:52;26.40;;;12.00;;
76540;SDS011;65385;55.772;37.658;2024-03-23T06:24:53;21.35;;;10.38;;
76540;SDS011;65385;55.772;37.658;2024-03-23T06:25:54;22.67;;;10.60;;
76540;SDS011;65385;55.772;37.658;2024-03-23T06:26:55;23.88;;;11.48;;
76540;SDS011;65385;55.772;37.658;2024-03-23T06:27:55;23.00;;;11.73;;
76540;SDS011;65385;55.772;37.658;2024-03-23T06:28:58;20.73;;;11.05;;
76540;SDS011;65385;55.772;37.658;2024-03-23T06:29:59;23.65;;;11.38;;
76540;SDS011;65385;55.772;37.658;2024-03-23T06:31:00;24.45;;;10.85;;
76540;SDS011;65385;55.772;37.658;2024-03-23T06:32:01;25.00;;;11.23;;
76540;SDS011;65385;55.772;37.658;2024-03-23T06:33:02;26.10;;;12.35;;
76540;SDS011;65385;55.772;37.658;2024-03-23T06:34:02;21.60;;;11.90;;
76540;SDS011;65385;55.772;37.658;2024-03-23T06:35:03;24.42;;;11.50;;
76540;SDS011;65385;55.772;37.658;2024-03-23T06:36:11;22.40;;;11.52;;
76540;SDS011;65385;55.772;37.658;2024-03-23T06:37:12;23.10;;;9.90;;
76540;SDS011;65385;55.772;37.658;2024-03-23T06:38:13;20.38;;;11.10;;
76540;SDS011;65385;55.772;37.658;2024-03-23T06:39:13;19.58;;;10.48;;
76540;SDS011;65385;55.772;37.658;2024-03-23T06:40:15;20.85;;;11.65;;
76540;SDS011;65385;55.772;37.658;2024-03-23T06:41:16;19.85;;;9.07;;
76540;SDS011;65385;55.772;37.658;2024-03-23T06:42:17;20.23;;;11.60;;
76540;SDS011;65385;55.772;37.658;2024-03-23T06:43:18;21.40;;;10.77;;
76540;SDS011;65385;55.772;37.658;2024-03-23T06:44:19;21.35;;;11.15;;